createdAt,value
2023-04-21T00:01:57.075Z,42.65
2023-04-21T00:04:48.390Z,42.66
2023-04-21T00:07:20.193Z,42.67
2023-04-21T00:10:26.815Z,42.69
2023-04-21T00:13:35.701Z,42.62
2023-04-21T00:16:24.170Z,42.59
2023-04-21T00:19:30.511Z,42.54
2023-04-21T00:22:02.629Z,42.55
2023-04-21T00:28:21.063Z,42.54
2023-04-21T00:31:05.741Z,42.54
2023-04-21T00:34:40.813Z,42.57
2023-04-21T00:40:41.649Z,42.44
2023-04-21T00:43:52.587Z,42.42
2023-04-21T00:46:45.792Z,42.43
2023-04-21T00:49:38.815Z,42.42
2023-04-21T00:55:49.405Z,42.43
2023-04-21T01:08:13.369Z,42.45
2023-04-21T01:10:48.152Z,42.56
2023-04-21T01:14:15.615Z,42.44
2023-04-21T01:20:02.089Z,42.42
2023-04-21T01:25:46.081Z,42.41
2023-04-21T01:28:55.217Z,42.41
2023-04-21T01:34:36.501Z,42.41
2023-04-21T01:37:31.686Z,42.40
2023-04-21T01:40:22.280Z,42.40
2023-04-21T01:49:44.499Z,42.33
2023-04-21T01:52:50.627Z,42.33
2023-04-21T01:58:53.644Z,42.31
2023-04-21T02:01:55.239Z,42.28
2023-04-21T02:04:54.849Z,42.27
2023-04-21T02:07:56.443Z,42.26
2023-04-21T02:16:58.754Z,42.20
2023-04-21T02:19:54.167Z,42.20
2023-04-21T02:25:52.298Z,42.16
2023-04-21T02:31:40.457Z,42.09
2023-04-21T02:35:15.257Z,42.04
2023-04-21T02:38:07.941Z,42.03
2023-04-21T02:43:55.456Z,42.02
2023-04-21T02:47:24.546Z,42.05
2023-04-21T02:49:51.627Z,42.07
2023-04-21T02:53:04.492Z,42.07
2023-04-21T02:55:44.813Z,42.03
2023-04-21T03:02:01.432Z,42.02
2023-04-21T03:08:13.699Z,41.93
2023-04-21T03:16:54.706Z,41.97
2023-04-21T03:20:00.557Z,41.97
2023-04-21T03:23:16.053Z,41.96
2023-04-21T03:26:17.910Z,41.94
2023-04-21T03:28:57.282Z,41.95
2023-04-21T03:32:14.526Z,41.89
2023-04-21T03:35:33.336Z,41.89
2023-04-21T03:38:07.732Z,41.90
2023-04-21T03:44:04.201Z,41.87
2023-04-21T03:46:58.028Z,41.85
2023-04-21T03:49:56.799Z,41.85
2023-04-21T03:56:03.653Z,41.82
2023-04-21T03:59:20.164Z,41.81
2023-04-21T04:08:18.506Z,41.77
2023-04-21T04:11:04.569Z,41.82
2023-04-21T04:17:31.568Z,41.66
2023-04-21T04:20:31.873Z,41.64
2023-04-21T04:23:13.262Z,41.62
2023-04-21T04:26:18.905Z,41.60
2023-04-21T04:32:29.292Z,41.62
2023-04-21T04:35:12.588Z,41.61
2023-04-21T04:38:39.630Z,41.57
2023-04-21T04:41:13.963Z,41.59
2023-04-21T04:44:25.117Z,41.58
2023-04-21T04:47:27.683Z,41.59
2023-04-21T04:50:11.253Z,41.58
2023-04-21T04:59:21.249Z,41.56
2023-04-21T05:02:27.659Z,41.55
2023-04-21T05:05:28.472Z,41.54
2023-04-21T05:08:47.675Z,41.55
2023-04-21T05:11:37.667Z,41.54
2023-04-21T05:14:53.435Z,41.54
2023-04-21T05:17:56.132Z,41.51
2023-04-21T05:21:01.058Z,41.51
2023-04-21T05:23:31.536Z,41.52
2023-04-21T05:26:46.073Z,41.51
2023-04-21T05:29:48.104Z,41.51
2023-04-21T05:32:20.987Z,41.33
2023-04-21T05:35:36.010Z,41.33
2023-04-21T05:44:32.862Z,41.46
2023-04-21T05:47:18.491Z,41.44
2023-04-21T05:50:48.641Z,41.45
2023-04-21T05:53:21.691Z,41.43
2023-04-21T06:02:28.629Z,41.40
2023-04-21T06:08:18.235Z,41.42
2023-04-21T06:11:15.932Z,41.36
2023-04-21T06:23:37.969Z,41.34
2023-04-21T06:32:35.951Z,41.28
2023-04-21T06:38:47.761Z,41.30
2023-04-21T06:41:55.458Z,41.33
2023-04-21T06:53:46.746Z,41.16
2023-04-21T07:02:47.284Z,41.16
2023-04-21T07:14:44.736Z,41.12
2023-04-21T07:17:38.582Z,41.09
2023-04-21T07:26:46.797Z,41.09
2023-04-21T07:35:52.951Z,41.06
2023-04-21T07:39:13.887Z,41.05
2023-04-21T07:42:17.113Z,41.05
2023-04-21T07:45:02.001Z,41.03
2023-04-21T07:47:44.881Z,40.99
2023-04-21T07:51:10.504Z,41.01
2023-04-21T08:00:10.409Z,40.96
2023-04-21T08:02:42.617Z,40.95
2023-04-21T08:08:49.389Z,40.89
2023-04-21T08:14:45.593Z,40.87
2023-04-21T08:21:08.058Z,40.87
2023-04-21T08:23:41.626Z,40.77
2023-04-21T08:26:30.854Z,40.81
2023-04-21T08:29:41.164Z,40.80
2023-04-21T08:32:52.187Z,40.79
2023-04-21T08:39:18.148Z,40.75
2023-04-21T08:44:35.169Z,40.74
2023-04-21T08:47:41.651Z,40.72
2023-04-21T08:51:00.491Z,40.68
2023-04-21T08:54:02.755Z,40.68
2023-04-21T08:57:04.583Z,40.65
2023-04-21T09:03:19.360Z,40.62
2023-04-21T09:06:19.136Z,40.53
2023-04-21T09:09:00.040Z,40.53
2023-04-21T09:11:47.714Z,40.54
2023-04-21T09:18:08.708Z,40.55
2023-04-21T09:21:06.939Z,40.55
2023-04-21T09:27:08.779Z,40.47
2023-04-21T09:30:23.378Z,40.50
2023-04-21T09:33:20.021Z,40.44
2023-04-21T09:39:38.342Z,40.42
2023-04-21T09:48:05.746Z,40.39
2023-04-21T09:53:55.685Z,40.36
2023-04-21T09:56:58.766Z,40.29
2023-04-21T10:00:19.347Z,40.27
2023-04-21T10:03:16.033Z,40.28
2023-04-21T10:12:44.989Z,40.24
2023-04-21T10:15:15.976Z,40.23
2023-04-21T10:21:51.236Z,40.19
2023-04-21T10:24:21.373Z,40.16
2023-04-21T10:27:03.186Z,40.17
2023-04-21T10:30:02.521Z,40.20
2023-04-21T10:33:13.480Z,40.17
2023-04-21T10:39:50.379Z,40.14
2023-04-21T10:42:25.650Z,40.10
2023-04-21T10:45:26.407Z,40.09
2023-04-21T10:48:12.289Z,40.12
2023-04-21T10:54:55.889Z,40.07
2023-04-21T10:57:33.026Z,40.12
2023-04-21T11:00:48.245Z,40.06
2023-04-21T11:03:34.689Z,40.05
2023-04-21T11:06:26.981Z,40.06
2023-04-21T11:09:26.989Z,40.01
2023-04-21T11:12:31.888Z,40.05
2023-04-21T11:15:41.035Z,40.02
2023-04-21T11:18:47.636Z,40.05
2023-04-21T11:21:22.716Z,40.03
2023-04-21T11:27:18.224Z,40.02
2023-04-21T11:30:33.469Z,40.05
2023-04-21T11:33:44.988Z,40.02
2023-04-21T11:36:52.205Z,40.00
2023-04-21T11:39:53.691Z,40.00
2023-04-21T11:42:24.751Z,40.01
2023-04-21T11:48:30.848Z,39.97
2023-04-21T11:51:22.590Z,39.98
2023-04-21T11:54:00.822Z,39.97
2023-04-21T12:03:38.828Z,39.96
2023-04-21T12:21:22.232Z,39.91
2023-04-21T12:24:36.829Z,39.89
2023-04-21T12:27:37.569Z,39.87
2023-04-21T12:30:09.587Z,39.82
2023-04-21T12:33:44.767Z,39.82
2023-04-21T12:36:56.506Z,39.76
2023-04-21T12:39:49.716Z,39.87
2023-04-21T12:42:39.024Z,39.87
2023-04-21T12:48:36.903Z,39.77
2023-04-21T12:51:29.398Z,39.79
2023-04-21T13:03:17.714Z,39.94
2023-04-21T13:09:36.483Z,40.00
2023-04-21T13:15:16.638Z,40.02
2023-04-21T13:24:39.039Z,40.05
2023-04-21T13:27:30.413Z,40.04
2023-04-21T13:33:42.549Z,40.02
2023-04-21T13:36:38.992Z,40.19
2023-04-21T13:39:38.377Z,40.18
2023-04-21T13:48:59.854Z,40.18
2023-04-21T13:51:47.747Z,40.14
2023-04-21T13:58:11.544Z,40.08
2023-04-21T14:00:54.523Z,40.06
2023-04-21T14:03:52.119Z,40.03
2023-04-21T14:06:56.189Z,40.03
2023-04-21T14:10:25.510Z,39.98
2023-04-21T14:13:05.129Z,39.93
2023-04-21T14:15:43.123Z,39.93
2023-04-21T14:21:52.692Z,39.89
2023-04-21T14:24:35.410Z,39.84
2023-04-21T14:34:22.042Z,39.81
2023-04-21T14:37:27.289Z,39.79
2023-04-21T14:40:13.633Z,39.75
2023-04-21T14:43:05.430Z,39.76
2023-04-21T14:46:37.821Z,39.72
2023-04-21T14:49:26.730Z,39.71
2023-04-21T14:54:58.810Z,39.69
2023-04-21T14:57:59.208Z,39.68
2023-04-21T15:00:56.677Z,39.69
2023-04-21T15:04:01.297Z,39.63
2023-04-21T15:07:01.886Z,39.64
2023-04-21T15:22:22.504Z,39.58
2023-04-21T15:25:29.552Z,39.59
2023-04-21T15:37:25.926Z,39.60
2023-04-21T15:39:50.626Z,39.58
2023-04-21T15:42:44.789Z,39.60
2023-04-21T15:45:59.813Z,39.60
2023-04-21T15:55:50.998Z,39.56
2023-04-21T15:58:39.014Z,39.56
2023-04-21T16:01:34.168Z,39.57
2023-04-21T16:04:04.282Z,39.56
2023-04-21T16:07:12.338Z,39.56
2023-04-21T16:13:03.047Z,39.53
2023-04-21T16:16:14.153Z,39.51
2023-04-21T16:22:51.493Z,39.52
2023-04-21T16:31:06.237Z,39.55
2023-04-21T16:36:49.949Z,39.43
2023-04-21T16:39:36.804Z,39.44
2023-04-21T16:42:07.217Z,39.43
2023-04-21T16:44:38.166Z,39.47
2023-04-21T16:47:09.026Z,39.47
2023-04-21T16:49:43.619Z,39.45
2023-04-21T16:52:13.307Z,39.48
2023-04-21T17:01:54.625Z,39.47
2023-04-21T17:04:26.939Z,39.50
2023-04-21T17:07:32.458Z,39.53
2023-04-21T17:10:47.248Z,39.55
2023-04-21T17:16:27.868Z,39.56
2023-04-21T17:19:35.377Z,39.57
2023-04-21T17:22:39.478Z,39.57
2023-04-21T17:25:12.762Z,39.56
2023-04-21T17:31:54.664Z,39.59
2023-04-21T17:44:11.079Z,39.64
2023-04-21T17:46:44.360Z,39.64
2023-04-21T17:53:09.271Z,39.67
2023-04-21T17:56:04.633Z,39.69
2023-04-21T17:58:50.682Z,39.69
2023-04-21T18:02:22.748Z,39.71
2023-04-21T18:04:59.538Z,39.72
2023-04-21T18:07:34.307Z,39.73
2023-04-21T18:19:20.412Z,39.78
2023-04-21T18:22:44.670Z,39.81
2023-04-21T18:25:11.029Z,39.83
2023-04-21T18:30:29.920Z,39.87
2023-04-21T18:33:01.605Z,39.87
2023-04-21T18:35:38.230Z,39.87
2023-04-21T18:38:09.220Z,39.86
2023-04-21T18:41:15.177Z,39.89
2023-04-21T18:43:45.191Z,39.86
2023-04-21T18:46:20.011Z,39.88
2023-04-21T18:49:43.752Z,39.89
2023-04-21T18:58:57.621Z,39.91
2023-04-21T19:01:30.395Z,39.94
2023-04-21T19:04:25.702Z,39.95
2023-04-21T19:07:23.084Z,39.94
2023-04-21T19:10:24.302Z,39.96
2023-04-21T19:13:53.777Z,39.97
2023-04-21T19:16:28.540Z,39.97
2023-04-21T19:19:24.978Z,39.96
2023-04-21T19:25:22.098Z,39.97
2023-04-21T19:31:28.677Z,39.98
2023-04-21T19:34:16.110Z,39.98
2023-04-21T19:36:46.251Z,39.99
2023-04-21T19:39:16.339Z,39.99
2023-04-21T19:41:46.434Z,39.98
2023-04-21T19:48:31.839Z,39.98
2023-04-21T19:50:04.080Z,40.04
2023-04-21T19:52:51.493Z,39.94
2023-04-21T19:56:34.041Z,39.93
2023-04-21T19:59:27.162Z,39.93
2023-04-21T20:02:04.079Z,39.96
2023-04-21T20:05:02.664Z,39.98
2023-04-21T20:07:45.629Z,40.00
2023-04-21T20:13:35.736Z,40.03
2023-04-21T20:16:33.772Z,40.06
2023-04-21T20:19:36.001Z,40.07
2023-04-21T20:22:44.027Z,40.08
2023-04-21T20:27:55.234Z,40.10
2023-04-21T20:30:25.431Z,40.12
2023-04-21T20:33:02.492Z,40.12
2023-04-21T20:35:35.152Z,40.14
2023-04-21T20:38:06.411Z,40.16
2023-04-21T20:40:53.465Z,40.20
2023-04-21T20:43:36.511Z,40.18
2023-04-21T20:54:51.496Z,40.26
2023-04-21T20:57:21.551Z,40.24
2023-04-21T20:59:53.566Z,40.27
2023-04-21T21:02:23.665Z,40.27
2023-04-21T21:04:53.751Z,40.24
2023-04-21T21:10:43.192Z,40.28
2023-04-21T21:13:46.236Z,40.31
2023-04-21T21:29:18.321Z,40.27
2023-04-21T21:31:42.890Z,40.37
2023-04-21T21:41:19.348Z,40.33
2023-04-21T21:44:04.399Z,40.38
2023-04-21T21:49:57.341Z,40.39
2023-04-21T21:52:54.319Z,40.46
2023-04-21T21:55:55.354Z,40.41
2023-04-21T21:59:02.493Z,40.43
2023-04-21T22:02:02.241Z,40.42
2023-04-21T22:05:08.706Z,40.45
2023-04-21T22:08:11.341Z,40.35
2023-04-21T22:11:38.416Z,40.47
2023-04-21T22:14:21.052Z,40.46
2023-04-21T22:16:52.910Z,40.30
2023-04-21T22:19:59.645Z,40.30
2023-04-21T22:23:04.318Z,40.47
2023-04-21T22:29:19.325Z,40.44
2023-04-21T22:31:56.815Z,40.40
2023-04-21T22:38:19.074Z,40.49
2023-04-21T22:47:04.689Z,40.22
2023-04-21T22:50:03.922Z,40.28
2023-04-21T22:53:27.057Z,40.34
2023-04-21T22:56:16.328Z,40.40
2023-04-21T22:59:55.417Z,39.85
2023-04-21T23:02:27.627Z,40.12
2023-04-21T23:05:03.608Z,40.27
2023-04-21T23:11:34.588Z,40.11
2023-04-21T23:14:45.109Z,40.21
2023-04-21T23:17:26.553Z,40.39
2023-04-21T23:20:30.031Z,40.45
2023-04-21T23:26:31.258Z,40.48
2023-04-21T23:29:42.219Z,40.37
2023-04-21T23:32:24.032Z,40.33
2023-04-21T23:35:37.556Z,40.36
2023-04-21T23:38:27.296Z,40.45
2023-04-21T23:42:00.840Z,40.45
2023-04-21T23:44:33.698Z,40.47
2023-04-21T23:47:38.999Z,40.36
2023-04-21T23:50:23.037Z,40.32
2023-04-21T23:56:53.800Z,40.39
2023-04-21T23:59:36.939Z,40.40
